createdAt,value
2023-01-17T00:00:33.051Z,2.75
2023-01-17T00:03:36.100Z,2.77
2023-01-17T00:06:29.846Z,2.78
2023-01-17T00:09:56.241Z,2.80
2023-01-17T00:12:43.222Z,2.83
2023-01-17T00:15:33.043Z,2.86
2023-01-17T00:18:08.276Z,2.91
2023-01-17T00:21:15.138Z,2.97
2023-01-17T00:24:09.112Z,3.00
2023-01-17T00:27:15.020Z,3.03
2023-01-17T00:29:49.091Z,3.01
2023-01-17T00:32:37.036Z,2.99
2023-01-17T00:35:12.104Z,2.95
2023-01-17T00:38:18.024Z,2.92
2023-01-17T00:41:00.102Z,2.88
2023-01-17T00:43:59.989Z,2.83
2023-01-17T00:47:13.017Z,2.80
2023-01-17T00:50:20.019Z,2.81
2023-01-17T00:53:13.940Z,2.82
2023-01-17T00:56:20.033Z,2.83
2023-01-17T00:59:14.072Z,2.82
2023-01-17T01:02:21.270Z,2.77
2023-01-17T01:05:17.394Z,2.72
2023-01-17T01:08:24.167Z,2.67
2023-01-17T01:11:18.115Z,2.63
2023-01-17T01:14:27.214Z,2.62
2023-01-17T01:17:33.220Z,2.64
2023-01-17T01:20:27.809Z,2.71
2023-01-17T01:23:38.194Z,2.79
2023-01-17T01:26:40.006Z,2.87
2023-01-17T01:29:41.127Z,2.99
2023-01-17T01:32:42.143Z,3.08
2023-01-17T01:35:30.219Z,3.14
2023-01-17T01:38:05.460Z,3.15
2023-01-17T01:41:03.015Z,3.17
2023-01-17T01:43:55.991Z,3.18
2023-01-17T01:46:54.007Z,3.18
2023-01-17T01:49:42.001Z,3.18
2023-01-17T01:52:18.123Z,3.17
2023-01-17T01:55:10.012Z,3.13
2023-01-17T01:57:55.619Z,3.07
2023-01-17T02:00:45.060Z,2.97
2023-01-17T02:03:42.048Z,2.86
2023-01-17T02:06:48.019Z,2.76
2023-01-17T02:09:24.126Z,2.69
2023-01-17T02:12:12.981Z,2.64
2023-01-17T02:15:02.284Z,2.60
2023-01-17T02:18:07.890Z,2.55
2023-01-17T02:21:08.004Z,2.47
2023-01-17T02:23:45.435Z,2.40
2023-01-17T02:26:50.998Z,2.32
2023-01-17T02:29:56.995Z,2.28
2023-01-17T02:32:51.138Z,2.25
2023-01-17T02:35:47.023Z,2.22
2023-01-17T02:38:52.143Z,2.15
2023-01-17T02:41:43.008Z,2.10
2023-01-17T02:44:30.127Z,2.07
2023-01-17T02:47:43.007Z,2.03
2023-01-17T02:50:44.979Z,2.00
2023-01-17T02:54:01.210Z,1.98
2023-01-17T02:56:51.297Z,1.99
2023-01-17T03:00:02.003Z,2.02
2023-01-17T03:03:05.062Z,2.04
2023-01-17T03:06:09.004Z,2.03
2023-01-17T03:08:58.133Z,2.04
2023-01-17T03:11:39.999Z,2.02
2023-01-17T03:14:21.513Z,2.00
2023-01-17T03:17:10.172Z,1.98
2023-01-17T03:20:05.173Z,1.94
2023-01-17T03:22:52.978Z,1.89
2023-01-17T03:25:27.574Z,1.84
2023-01-17T03:28:14.978Z,1.80
2023-01-17T03:30:57.067Z,1.76
2023-01-17T03:33:53.185Z,1.72
2023-01-17T03:36:41.834Z,1.68
2023-01-17T03:39:23.119Z,1.61
2023-01-17T03:42:05.110Z,1.57
2023-01-17T03:44:46.289Z,1.50
2023-01-17T03:47:28.082Z,1.46
2023-01-17T03:50:12.124Z,1.46
2023-01-17T03:52:52.993Z,1.47
2023-01-17T03:55:40.971Z,1.47
2023-01-17T03:58:16.686Z,1.49
2023-01-17T04:01:06.283Z,1.50
2023-01-17T04:03:42.612Z,1.50
2023-01-17T04:06:31.079Z,1.48
2023-01-17T04:09:12.960Z,1.46
2023-01-17T04:11:54.251Z,1.41
2023-01-17T04:14:35.985Z,1.41
2023-01-17T04:17:19.268Z,1.41
2023-01-17T04:20:01.158Z,1.39
2023-01-17T04:22:43.261Z,1.37
2023-01-17T04:25:24.983Z,1.35
2023-01-17T04:28:14.970Z,1.35
2023-01-17T04:30:49.615Z,1.34
2023-01-17T04:33:37.984Z,1.31
2023-01-17T04:36:26.153Z,1.25
2023-01-17T04:39:08.148Z,1.20
2023-01-17T04:42:03.161Z,1.16
2023-01-17T04:44:51.178Z,1.14
2023-01-17T04:47:26.233Z,1.14
2023-01-17T04:50:14.975Z,1.14
2023-01-17T04:52:57.170Z,1.15
2023-01-17T04:55:51.984Z,1.09
2023-01-17T04:58:39.963Z,1.03
2023-01-17T05:01:23.056Z,1.04
2023-01-17T05:04:10.981Z,1.07
2023-01-17T05:06:46.219Z,1.16
2023-01-17T05:09:34.158Z,1.29
2023-01-17T05:12:09.183Z,1.39
2023-01-17T05:14:57.119Z,1.47
2023-01-17T05:17:39.124Z,1.53
2023-01-17T05:20:35.939Z,1.57
2023-01-17T05:23:24.154Z,1.59
2023-01-17T05:25:59.240Z,1.59
2023-01-17T05:28:46.973Z,1.57
2023-01-17T05:31:22.269Z,1.56
2023-01-17T05:34:10.969Z,1.56
2023-01-17T05:36:46.205Z,1.59
2023-01-17T05:39:34.142Z,1.61
2023-01-17T05:42:16.139Z,1.59
2023-01-17T05:45:11.153Z,1.59
2023-01-17T05:48:07.989Z,1.67
2023-01-17T05:51:03.092Z,1.70
2023-01-17T05:53:51.168Z,1.71
2023-01-17T05:56:26.121Z,1.68
2023-01-17T05:59:14.324Z,1.68
2023-01-17T06:01:50.260Z,1.68
2023-01-17T06:04:39.991Z,1.70
2023-01-17T06:07:15.181Z,1.75
2023-01-17T06:10:03.008Z,1.83
2023-01-17T06:12:38.078Z,1.96
2023-01-17T06:15:25.951Z,2.09
2023-01-17T06:18:01.062Z,2.20
2023-01-17T06:20:48.950Z,2.26
2023-01-17T06:23:24.070Z,2.22
2023-01-17T06:26:12.948Z,2.18
2023-01-17T06:28:54.932Z,2.17
2023-01-17T06:31:49.947Z,2.17
2023-01-17T06:34:37.986Z,2.20
2023-01-17T06:37:13.082Z,2.24
2023-01-17T06:40:00.952Z,2.29
2023-01-17T06:42:36.068Z,2.36
2023-01-17T06:45:24.931Z,2.46
2023-01-17T06:48:06.025Z,2.56
2023-01-17T06:51:01.029Z,2.61
2023-01-17T06:53:48.963Z,2.64
2023-01-17T06:56:24.102Z,2.65
2023-01-17T06:59:11.968Z,2.66
2023-01-17T07:01:47.237Z,2.67
2023-01-17T07:04:35.012Z,2.69
2023-01-17T07:07:10.143Z,2.71
2023-01-17T07:09:57.978Z,2.73
2023-01-17T07:12:39.972Z,2.77
2023-01-17T07:15:34.979Z,2.81
2023-01-17T07:18:27.013Z,2.86
2023-01-17T07:21:08.241Z,2.91
2023-01-17T07:23:49.910Z,2.94
2023-01-17T07:26:31.057Z,2.95
2023-01-17T07:29:11.927Z,2.95
2023-01-17T07:32:02.923Z,2.91
2023-01-17T07:34:43.920Z,2.87
2023-01-17T07:37:32.972Z,2.84
2023-01-17T07:40:07.909Z,2.79
2023-01-17T07:42:55.941Z,2.85
2023-01-17T07:45:30.462Z,2.93
2023-01-17T07:48:17.990Z,2.94
2023-01-17T07:51:04.932Z,2.89
2023-01-17T07:53:46.092Z,2.86
2023-01-17T07:56:27.975Z,2.84
2023-01-17T07:59:09.057Z,2.85
2023-01-17T08:01:50.200Z,2.88
2023-01-17T08:04:35.481Z,3.00
2023-01-17T08:07:16.989Z,3.13
2023-01-17T08:09:58.084Z,3.25
2023-01-17T08:12:38.989Z,3.37
2023-01-17T08:15:21.103Z,3.50
2023-01-17T08:18:04.927Z,3.60
2023-01-17T08:20:52.930Z,3.71
2023-01-17T08:23:27.436Z,3.80
2023-01-17T08:26:14.964Z,3.88
2023-01-17T08:28:57.080Z,3.92
2023-01-17T08:31:46.925Z,3.89
2023-01-17T08:34:22.127Z,3.83
2023-01-17T08:37:09.920Z,3.85
2023-01-17T08:39:50.914Z,3.88
2023-01-17T08:42:37.437Z,3.94
2023-01-17T08:45:20.016Z,4.02
2023-01-17T08:48:14.915Z,4.08
2023-01-17T08:51:06.924Z,4.17
2023-01-17T08:53:42.624Z,4.29
2023-01-17T08:56:32.943Z,4.41
2023-01-17T08:59:08.091Z,4.56
2023-01-17T09:01:56.033Z,4.68
2023-01-17T09:04:38.286Z,4.80
2023-01-17T09:07:34.934Z,4.88
2023-01-17T09:10:23.921Z,4.91
2023-01-17T09:12:58.047Z,4.92
2023-01-17T09:15:46.003Z,4.90
2023-01-17T09:18:28.928Z,4.88
2023-01-17T09:21:33.903Z,4.93
2023-01-17T09:24:28.916Z,5.02
2023-01-17T09:27:16.899Z,5.16
2023-01-17T09:29:58.909Z,5.26
2023-01-17T09:32:54.011Z,5.35
2023-01-17T09:35:41.940Z,5.43
2023-01-17T09:38:23.924Z,5.51
2023-01-17T09:41:26.900Z,5.59
2023-01-17T09:44:07.030Z,5.66
2023-01-17T09:47:07.664Z,5.70
2023-01-17T09:50:02.925Z,5.79
2023-01-17T09:52:50.858Z,5.85
2023-01-17T09:55:26.079Z,5.92
2023-01-17T09:58:18.907Z,6.01
2023-01-17T10:01:03.921Z,6.09
2023-01-17T10:04:23.014Z,6.18
2023-01-17T10:07:29.038Z,6.28
2023-01-17T10:10:27.017Z,6.44
2023-01-17T10:13:11.979Z,6.66
2023-01-17T10:16:28.006Z,6.86
2023-01-17T10:19:37.929Z,7.04
2023-01-17T10:22:44.034Z,7.17
2023-01-17T10:25:29.020Z,7.30
2023-01-17T10:28:20.920Z,7.43
2023-01-17T10:31:09.018Z,7.56
2023-01-17T10:34:00.912Z,7.67
2023-01-17T10:36:49.898Z,7.83
2023-01-17T10:39:37.874Z,7.97
2023-01-17T10:42:57.941Z,8.07
2023-01-17T10:46:03.051Z,8.14
2023-01-17T10:48:59.927Z,8.21
2023-01-17T10:51:56.886Z,8.26
2023-01-17T10:55:03.962Z,8.32
2023-01-17T10:57:54.255Z,8.38
2023-01-17T11:00:36.046Z,8.42
2023-01-17T11:03:27.909Z,8.44
2023-01-17T11:06:27.871Z,8.45
2023-01-17T11:09:18.881Z,8.50
2023-01-17T11:11:57.022Z,8.57
2023-01-17T11:15:09.183Z,8.64
2023-01-17T11:18:15.424Z,8.72
2023-01-17T11:20:51.409Z,8.75
2023-01-17T11:23:46.885Z,8.77
2023-01-17T11:26:34.985Z,8.79
2023-01-17T11:29:43.111Z,8.80
2023-01-17T11:32:27.893Z,8.80
2023-01-17T11:35:17.030Z,8.78
2023-01-17T11:37:58.917Z,8.72
2023-01-17T11:40:47.175Z,8.64
2023-01-17T11:43:33.885Z,8.56
2023-01-17T11:46:24.306Z,8.51
2023-01-17T11:49:07.874Z,8.58
2023-01-17T11:51:49.036Z,8.69
2023-01-17T11:54:32.892Z,8.76
2023-01-17T11:57:33.877Z,8.80
2023-01-17T12:00:23.542Z,8.81
2023-01-17T12:03:26.914Z,8.73
2023-01-17T12:06:56.830Z,8.69
2023-01-17T12:10:26.879Z,8.66
2023-01-17T12:13:25.953Z,8.60
2023-01-17T12:16:36.963Z,8.56
2023-01-17T12:19:32.570Z,8.48
2023-01-17T12:22:33.947Z,8.50
2023-01-17T12:25:33.093Z,8.51
2023-01-17T12:29:14.873Z,8.53
2023-01-17T12:32:26.882Z,8.51
2023-01-17T12:35:12.869Z,8.48
2023-01-17T12:38:23.744Z,8.42
2023-01-17T12:41:32.877Z,8.36
2023-01-17T12:44:08.006Z,8.27
2023-01-17T12:47:10.880Z,8.17
2023-01-17T12:50:17.867Z,8.11
2023-01-17T12:53:12.891Z,8.08
2023-01-17T12:56:08.869Z,8.08
2023-01-17T12:59:05.924Z,8.07
2023-01-17T13:01:43.392Z,8.05
2023-01-17T13:04:57.453Z,8.04
2023-01-17T13:07:39.081Z,8.07
2023-01-17T13:10:47.899Z,8.12
2023-01-17T13:13:32.208Z,8.18
2023-01-17T13:16:21.948Z,8.24
2023-01-17T13:18:59.010Z,8.28
2023-01-17T13:21:46.903Z,8.38
2023-01-17T13:24:33.016Z,8.45
2023-01-17T13:27:18.887Z,8.53
2023-01-17T13:30:33.138Z,8.61
2023-01-17T13:33:40.880Z,8.76
2023-01-17T13:36:43.889Z,8.94
2023-01-17T13:39:56.953Z,9.14
2023-01-17T13:43:16.893Z,9.41
2023-01-17T13:45:56.230Z,9.69
2023-01-17T13:48:47.854Z,10.00
2023-01-17T13:52:16.899Z,10.32
2023-01-17T13:55:10.855Z,10.53
2023-01-17T13:57:46.931Z,10.33
2023-01-17T14:00:34.888Z,10.02
2023-01-17T14:03:16.944Z,9.93
2023-01-17T14:06:04.862Z,10.51
2023-01-17T14:08:52.039Z,10.76
2023-01-17T14:11:32.861Z,10.44
2023-01-17T14:14:54.856Z,9.82
2023-01-17T14:17:45.414Z,9.30
2023-01-17T14:20:38.847Z,8.81
2023-01-17T14:23:31.967Z,8.69
2023-01-17T14:26:34.387Z,8.55
2023-01-17T14:29:56.054Z,8.34
2023-01-17T14:32:50.859Z,7.87
2023-01-17T14:35:31.953Z,7.51
2023-01-17T14:38:40.855Z,7.25
2023-01-17T14:41:38.873Z,7.00
2023-01-17T14:44:26.989Z,6.82
2023-01-17T14:47:08.867Z,6.73
2023-01-17T14:50:23.951Z,6.64
2023-01-17T14:53:17.867Z,6.41
2023-01-17T14:56:03.877Z,6.18
2023-01-17T14:58:58.908Z,5.89
2023-01-17T15:02:01.783Z,5.63
2023-01-17T15:04:41.343Z,5.38
2023-01-17T15:07:29.884Z,5.25
2023-01-17T15:10:04.986Z,5.18
2023-01-17T15:12:55.836Z,5.10
2023-01-17T15:15:40.179Z,5.03
2023-01-17T15:18:32.851Z,4.92
2023-01-17T15:21:22.866Z,4.80
2023-01-17T15:24:07.857Z,4.69
2023-01-17T15:26:49.985Z,4.60
2023-01-17T15:29:32.870Z,4.53
2023-01-17T15:32:23.872Z,4.46
2023-01-17T15:35:18.846Z,4.39
2023-01-17T15:38:07.843Z,4.32
2023-01-17T15:40:49.038Z,4.26
2023-01-17T15:43:42.852Z,4.20
2023-01-17T15:46:47.163Z,4.15
2023-01-17T15:49:35.875Z,4.09
2023-01-17T15:52:19.080Z,4.04
2023-01-17T15:55:22.244Z,3.99
2023-01-17T15:58:04.856Z,3.96
2023-01-17T16:00:54.138Z,3.93
2023-01-17T16:03:44.843Z,3.90
2023-01-17T16:06:52.603Z,3.89
2023-01-17T16:09:39.048Z,3.87
2023-01-17T16:12:27.061Z,3.84
2023-01-17T16:15:12.239Z,3.80
2023-01-17T16:17:56.882Z,3.75
2023-01-17T16:20:43.535Z,3.72
2023-01-17T16:23:24.845Z,3.73
2023-01-17T16:26:06.210Z,3.74
2023-01-17T16:28:50.842Z,3.77
2023-01-17T16:31:32.695Z,3.74
2023-01-17T16:34:19.999Z,3.70
2023-01-17T16:37:16.829Z,3.68
2023-01-17T16:40:07.590Z,3.62
2023-01-17T16:42:42.672Z,3.59
2023-01-17T16:45:31.868Z,3.52
2023-01-17T16:48:18.973Z,3.47
2023-01-17T16:51:12.862Z,3.42
2023-01-17T16:53:50.916Z,3.41
2023-01-17T16:56:40.836Z,3.43
2023-01-17T16:59:16.046Z,3.45
2023-01-17T17:02:15.355Z,3.47
2023-01-17T17:04:58.993Z,3.49
2023-01-17T17:07:51.985Z,3.51
2023-01-17T17:10:38.008Z,3.50
2023-01-17T17:13:34.904Z,3.49
2023-01-17T17:17:01.381Z,3.50
2023-01-17T17:19:49.856Z,3.49
2023-01-17T17:22:30.977Z,3.48
2023-01-17T17:25:14.858Z,3.50
2023-01-17T17:28:03.324Z,3.52
2023-01-17T17:30:57.878Z,3.55
2023-01-17T17:33:42.989Z,3.60
2023-01-17T17:37:03.950Z,3.64
2023-01-17T17:39:49.167Z,3.64
2023-01-17T17:42:31.254Z,3.64
2023-01-17T17:45:12.996Z,3.65
2023-01-17T17:47:54.899Z,3.67
2023-01-17T17:50:36.285Z,3.68
2023-01-17T17:53:18.392Z,3.68
2023-01-17T17:56:09.823Z,3.64
2023-01-17T17:58:48.709Z,3.63
2023-01-17T18:02:04.538Z,3.67
2023-01-17T18:04:54.973Z,3.75
2023-01-17T18:07:39.976Z,3.78
2023-01-17T18:10:24.887Z,3.79
2023-01-17T18:13:16.976Z,3.80
2023-01-17T18:16:03.649Z,3.81
2023-01-17T18:19:12.023Z,3.80
2023-01-17T18:21:57.810Z,3.78
2023-01-17T18:24:40.213Z,3.77
2023-01-17T18:27:21.848Z,3.76
2023-01-17T18:30:14.606Z,3.75
2023-01-17T18:32:56.935Z,3.75
2023-01-17T18:35:38.973Z,3.78
2023-01-17T18:38:19.843Z,3.81
2023-01-17T18:41:34.833Z,3.82
2023-01-17T18:44:38.787Z,3.85
2023-01-17T18:47:29.837Z,3.86
2023-01-17T18:50:24.831Z,3.84
2023-01-17T18:53:12.820Z,3.85
2023-01-17T18:56:03.163Z,3.84
2023-01-17T18:58:47.986Z,3.85
2023-01-17T19:01:54.128Z,3.84
2023-01-17T19:04:35.477Z,3.85
2023-01-17T19:07:41.158Z,3.84
2023-01-17T19:10:20.571Z,3.89
2023-01-17T19:13:11.752Z,3.94
2023-01-17T19:15:48.423Z,4.00
2023-01-17T19:18:36.820Z,4.03
2023-01-17T19:21:13.479Z,4.05
2023-01-17T19:24:04.344Z,4.07
2023-01-17T19:26:46.940Z,4.07
2023-01-17T19:29:30.251Z,4.10
2023-01-17T19:32:13.983Z,4.09
2023-01-17T19:35:00.807Z,4.08
2023-01-17T19:37:50.942Z,4.06
2023-01-17T19:40:42.002Z,4.02
2023-01-17T19:43:36.820Z,3.97
2023-01-17T19:46:28.365Z,3.95
2023-01-17T19:49:05.958Z,3.96
2023-01-17T19:51:58.812Z,3.96
2023-01-17T19:54:42.699Z,3.92
2023-01-17T19:57:41.843Z,3.85
2023-01-17T20:00:30.233Z,3.82
2023-01-17T20:03:25.825Z,3.78
2023-01-17T20:06:15.339Z,3.75
2023-01-17T20:08:51.265Z,3.74
2023-01-17T20:11:38.953Z,3.77
2023-01-17T20:14:14.348Z,3.80
2023-01-17T20:17:01.923Z,3.81
2023-01-17T20:19:42.970Z,3.82
2023-01-17T20:22:24.104Z,3.82
2023-01-17T20:25:12.890Z,3.81
2023-01-17T20:27:47.227Z,3.81
2023-01-17T20:30:36.804Z,3.77
2023-01-17T20:34:39.867Z,3.74
2023-01-17T20:42:16.001Z,3.64
2023-01-17T20:45:10.869Z,3.58
2023-01-17T20:48:05.465Z,3.55
2023-01-17T20:50:51.370Z,3.55
2023-01-17T20:53:33.158Z,3.60
2023-01-17T20:56:17.330Z,3.68
2023-01-17T20:59:03.904Z,3.74
2023-01-17T21:01:46.090Z,3.78
2023-01-17T21:04:58.018Z,3.84
2023-01-17T21:07:49.817Z,3.92
2023-01-17T21:11:00.363Z,3.97
2023-01-17T21:14:46.848Z,3.98
2023-01-17T21:21:42.994Z,3.99
2023-01-17T21:37:56.517Z,4.11
2023-01-17T21:40:37.801Z,4.08
2023-01-17T21:44:28.988Z,4.06
2023-01-17T21:47:24.196Z,4.12
2023-01-17T21:54:15.419Z,4.03
2023-01-17T21:57:20.799Z,3.93
2023-01-17T22:00:02.804Z,3.88
2023-01-17T22:02:43.783Z,3.84
2023-01-17T22:05:25.056Z,3.81
2023-01-17T22:08:19.004Z,3.81
2023-01-17T22:11:01.111Z,3.83
2023-01-17T22:13:43.995Z,3.85
2023-01-17T22:16:37.816Z,3.85
2023-01-17T22:19:18.805Z,3.85
2023-01-17T22:22:01.317Z,3.87
2023-01-17T22:24:44.430Z,3.90
2023-01-17T22:27:34.386Z,3.92
2023-01-17T22:30:29.868Z,3.93
2023-01-17T22:33:19.740Z,3.91
2023-01-17T22:36:02.193Z,3.92
2023-01-17T22:38:50.333Z,3.92
2023-01-17T22:41:33.863Z,3.86
2023-01-17T22:44:21.981Z,3.81
2023-01-17T22:46:57.098Z,3.83
2023-01-17T22:49:44.973Z,3.83
2023-01-17T22:52:27.930Z,3.82
2023-01-17T22:55:23.773Z,3.83
2023-01-17T22:58:11.895Z,3.82
2023-01-17T23:00:47.628Z,3.80
2023-01-17T23:03:35.822Z,3.85
2023-01-17T23:06:19.915Z,3.90
2023-01-17T23:09:11.790Z,3.89
2023-01-17T23:11:58.431Z,3.89
2023-01-17T23:15:13.996Z,3.89
2023-01-17T23:18:20.775Z,3.82
2023-01-17T23:20:55.164Z,3.76
2023-01-17T23:23:45.830Z,3.74
2023-01-17T23:26:21.839Z,3.72
2023-01-17T23:29:09.780Z,3.72
2023-01-17T23:31:44.169Z,3.71
2023-01-17T23:34:31.754Z,3.73
2023-01-17T23:37:12.776Z,3.75
2023-01-17T23:39:53.891Z,3.74
2023-01-17T23:42:52.765Z,3.73
2023-01-17T23:45:33.889Z,3.71
2023-01-17T23:48:17.778Z,3.68
2023-01-17T23:51:17.756Z,3.65
2023-01-17T23:53:57.573Z,3.67
2023-01-17T23:57:06.581Z,3.69
2023-01-17T23:59:45.498Z,3.66
